sensor_id;sensor_type;location;lat;lon;timestamp;pressure;altitude;pressure_sealevel;temperature;humidity
21760;BME280;11041;50.854;20.580;2024-02-16T00:01:00;99355.00;;;3.03;98.17
21760;BME280;11041;50.854;20.580;2024-02-16T00:03:36;99356.06;;;3.02;98.84
21760;BME280;11041;50.854;20.580;2024-02-16T00:06:03;99353.34;;;3.02;99.11
21760;BME280;11041;50.854;20.580;2024-02-16T00:08:30;99357.97;;;3.02;100.00
21760;BME280;11041;50.854;20.580;2024-02-16T00:10:57;99354.75;;;3.05;99.74
21760;BME280;11041;50.854;20.580;2024-02-16T00:13:24;99353.91;;;3.04;99.27
21760;BME280;11041;50.854;20.580;2024-02-16T00:15:53;99358.25;;;3.05;99.54
21760;BME280;11041;50.854;20.580;2024-02-16T00:18:20;99350.13;;;3.05;99.84
21760;BME280;11041;50.854;20.580;2024-02-16T00:20:46;99352.59;;;3.07;100.00
21760;BME280;11041;50.854;20.580;2024-02-16T00:23:13;99356.69;;;3.09;100.00
21760;BME280;11041;50.854;20.580;2024-02-16T00:25:42;99358.38;;;3.10;99.51
21760;BME280;11041;50.854;20.580;2024-02-16T00:28:09;99355.66;;;3.10;99.37
21760;BME280;11041;50.854;20.580;2024-02-16T00:30:36;99351.50;;;3.08;99.15
21760;BME280;11041;50.854;20.580;2024-02-16T00:33:02;99360.34;;;2.98;98.75
21760;BME280;11041;50.854;20.580;2024-02-16T00:35:29;99364.06;;;2.92;98.77
21760;BME280;11041;50.854;20.580;2024-02-16T00:38:02;99362.63;;;2.84;98.06
21760;BME280;11041;50.854;20.580;2024-02-16T00:40:29;99358.41;;;2.76;97.89
21760;BME280;11041;50.854;20.580;2024-02-16T00:42:57;99357.31;;;2.55;99.26
21760;BME280;11041;50.854;20.580;2024-02-16T00:45:24;99354.09;;;2.42;100.00
21760;BME280;11041;50.854;20.580;2024-02-16T00:47:51;99358.63;;;2.36;100.00
21760;BME280;11041;50.854;20.580;2024-02-16T00:50:18;99359.44;;;2.37;100.00
21760;BME280;11041;50.854;20.580;2024-02-16T00:52:44;99351.81;;;2.33;100.00
21760;BME280;11041;50.854;20.580;2024-02-16T00:55:12;99352.63;;;2.34;100.00
21760;BME280;11041;50.854;20.580;2024-02-16T00:57:39;99351.47;;;2.30;100.00
21760;BME280;11041;50.854;20.580;2024-02-16T01:00:06;99345.22;;;2.29;100.00
21760;BME280;11041;50.854;20.580;2024-02-16T01:02:36;99347.13;;;2.29;100.00
21760;BME280;11041;50.854;20.580;2024-02-16T01:05:05;99342.44;;;2.24;100.00
21760;BME280;11041;50.854;20.580;2024-02-16T01:07:31;99337.00;;;2.24;100.00
21760;BME280;11041;50.854;20.580;2024-02-16T01:09:59;99340.03;;;2.28;100.00
21760;BME280;11041;50.854;20.580;2024-02-16T01:12:26;99347.13;;;2.29;100.00
21760;BME280;11041;50.854;20.580;2024-02-16T01:14:53;99338.72;;;2.30;100.00
21760;BME280;11041;50.854;20.580;2024-02-16T01:17:20;99346.03;;;2.30;100.00
21760;BME280;11041;50.854;20.580;2024-02-16T01:19:46;99340.84;;;2.28;100.00
21760;BME280;11041;50.854;20.580;2024-02-16T01:22:13;99331.91;;;2.28;100.00
21760;BME280;11041;50.854;20.580;2024-02-16T01:24:40;99337.59;;;2.26;100.00
21760;BME280;11041;50.854;20.580;2024-02-16T01:27:07;99329.69;;;2.25;100.00
21760;BME280;11041;50.854;20.580;2024-02-16T01:29:34;99325.81;;;2.21;100.00
21760;BME280;11041;50.854;20.580;2024-02-16T01:32:01;99330.09;;;2.17;100.00
21760;BME280;11041;50.854;20.580;2024-02-16T01:34:29;99330.56;;;2.13;100.00
21760;BME280;11041;50.854;20.580;2024-02-16T01:36:59;99327.28;;;2.11;100.00
21760;BME280;11041;50.854;20.580;2024-02-16T01:39:26;99324.25;;;2.08;100.00
21760;BME280;11041;50.854;20.580;2024-02-16T01:41:53;99320.16;;;2.05;100.00
21760;BME280;11041;50.854;20.580;2024-02-16T01:44:20;99323.09;;;2.04;100.00
21760;BME280;11041;50.854;20.580;2024-02-16T01:46:46;99322.50;;;2.02;100.00
21760;BME280;11041;50.854;20.580;2024-02-16T01:49:15;99320.06;;;2.00;100.00
21760;BME280;11041;50.854;20.580;2024-02-16T01:51:43;99318.41;;;1.99;100.00
21760;BME280;11041;50.854;20.580;2024-02-16T01:54:12;99311.84;;;1.95;100.00
21760;BME280;11041;50.854;20.580;2024-02-16T01:56:41;99315.38;;;1.96;100.00
21760;BME280;11041;50.854;20.580;2024-02-16T01:59:08;99316.69;;;1.93;100.00
21760;BME280;11041;50.854;20.580;2024-02-16T02:01:35;99326.13;;;1.90;100.00
21760;BME280;11041;50.854;20.580;2024-02-16T02:04:02;99319.31;;;1.88;100.00
21760;BME280;11041;50.854;20.580;2024-02-16T02:06:30;99306.50;;;1.83;100.00
21760;BME280;11041;50.854;20.580;2024-02-16T02:08:57;99313.81;;;1.83;100.00
21760;BME280;11041;50.854;20.580;2024-02-16T02:11:24;99308.28;;;1.78;100.00
21760;BME280;11041;50.854;20.580;2024-02-16T02:13:51;99306.06;;;1.75;100.00
21760;BME280;11041;50.854;20.580;2024-02-16T02:16:19;99300.56;;;1.69;100.00
21760;BME280;11041;50.854;20.580;2024-02-16T02:18:47;99302.09;;;1.65;100.00
21760;BME280;11041;50.854;20.580;2024-02-16T02:21:14;99302.59;;;1.62;100.00
21760;BME280;11041;50.854;20.580;2024-02-16T02:23:41;99300.63;;;1.58;100.00
21760;BME280;11041;50.854;20.580;2024-02-16T02:26:07;99295.09;;;1.53;100.00
21760;BME280;11041;50.854;20.580;2024-02-16T02:28:34;99297.22;;;1.51;100.00
21760;BME280;11041;50.854;20.580;2024-02-16T02:31:01;99299.34;;;1.48;100.00
21760;BME280;11041;50.854;20.580;2024-02-16T02:33:29;99294.44;;;1.45;100.00
21760;BME280;11041;50.854;20.580;2024-02-16T02:35:56;99296.78;;;1.42;100.00
21760;BME280;11041;50.854;20.580;2024-02-16T02:38:24;99283.75;;;1.39;100.00
21760;BME280;11041;50.854;20.580;2024-02-16T02:40:51;99291.28;;;1.37;100.00
21760;BME280;11041;50.854;20.580;2024-02-16T02:43:21;99295.88;;;1.36;100.00
21760;BME280;11041;50.854;20.580;2024-02-16T02:45:49;99292.00;;;1.32;100.00
21760;BME280;11041;50.854;20.580;2024-02-16T02:48:18;99293.31;;;1.30;100.00
21760;BME280;11041;50.854;20.580;2024-02-16T02:50:46;99294.88;;;1.25;100.00
21760;BME280;11041;50.854;20.580;2024-02-16T02:53:13;99289.47;;;1.25;100.00
21760;BME280;11041;50.854;20.580;2024-02-16T02:55:42;99297.22;;;1.22;100.00
21760;BME280;11041;50.854;20.580;2024-02-16T02:58:14;99290.63;;;1.18;100.00
21760;BME280;11041;50.854;20.580;2024-02-16T03:00:43;99292.22;;;1.14;100.00
21760;BME280;11041;50.854;20.580;2024-02-16T03:03:13;99289.97;;;1.11;100.00
21760;BME280;11041;50.854;20.580;2024-02-16T03:05:42;99297.53;;;1.09;100.00
21760;BME280;11041;50.854;20.580;2024-02-16T03:08:11;99306.09;;;1.05;100.00
21760;BME280;11041;50.854;20.580;2024-02-16T03:10:38;99304.69;;;1.03;100.00
21760;BME280;11041;50.854;20.580;2024-02-16T03:13:06;99307.06;;;0.99;100.00
21760;BME280;11041;50.854;20.580;2024-02-16T03:15:41;99304.59;;;0.98;100.00
21760;BME280;11041;50.854;20.580;2024-02-16T03:18:14;99306.47;;;0.97;100.00
21760;BME280;11041;50.854;20.580;2024-02-16T03:20:42;99309.19;;;0.97;100.00
21760;BME280;11041;50.854;20.580;2024-02-16T03:23:15;99304.00;;;0.96;100.00
21760;BME280;11041;50.854;20.580;2024-02-16T03:25:44;99302.00;;;0.91;100.00
21760;BME280;11041;50.854;20.580;2024-02-16T03:28:16;99299.56;;;0.90;100.00
21760;BME280;11041;50.854;20.580;2024-02-16T03:30:44;99302.00;;;0.91;100.00
21760;BME280;11041;50.854;20.580;2024-02-16T03:33:14;99303.91;;;0.91;100.00
21760;BME280;11041;50.854;20.580;2024-02-16T03:35:43;99312.59;;;0.93;100.00
21760;BME280;11041;50.854;20.580;2024-02-16T03:38:12;99316.38;;;0.92;100.00
21760;BME280;11041;50.854;20.580;2024-02-16T03:40:42;99306.38;;;0.92;100.00
21760;BME280;11041;50.854;20.580;2024-02-16T03:43:11;99311.88;;;0.97;100.00
21760;BME280;11041;50.854;20.580;2024-02-16T03:45:41;99312.81;;;1.03;100.00
21760;BME280;11041;50.854;20.580;2024-02-16T03:48:07;99324.22;;;1.05;100.00
21760;BME280;11041;50.854;20.580;2024-02-16T03:50:34;99320.22;;;1.08;100.00
21760;BME280;11041;50.854;20.580;2024-02-16T03:53:02;99321.88;;;1.09;100.00
21760;BME280;11041;50.854;20.580;2024-02-16T03:55:28;99314.31;;;1.11;100.00
21760;BME280;11041;50.854;20.580;2024-02-16T03:57:58;99317.03;;;1.11;100.00
21760;BME280;11041;50.854;20.580;2024-02-16T04:00:26;99321.38;;;1.12;100.00
21760;BME280;11041;50.854;20.580;2024-02-16T04:02:56;99326.22;;;1.10;100.00
21760;BME280;11041;50.854;20.580;2024-02-16T04:05:23;99324.59;;;1.09;100.00
21760;BME280;11041;50.854;20.580;2024-02-16T04:07:49;99321.03;;;1.08;100.00
21760;BME280;11041;50.854;20.580;2024-02-16T04:10:21;99321.88;;;1.09;100.00
21760;BME280;11041;50.854;20.580;2024-02-16T04:12:52;99315.88;;;1.06;100.00
21760;BME280;11041;50.854;20.580;2024-02-16T04:15:21;99321.78;;;1.03;100.00
21760;BME280;11041;50.854;20.580;2024-02-16T04:17:51;99320.94;;;1.03;100.00
21760;BME280;11041;50.854;20.580;2024-02-16T04:20:22;99331.66;;;0.98;100.00
21760;BME280;11041;50.854;20.580;2024-02-16T04:22:51;99334.63;;;0.96;100.00
21760;BME280;11041;50.854;20.580;2024-02-16T04:25:19;99326.94;;;0.93;100.00
21760;BME280;11041;50.854;20.580;2024-02-16T04:27:49;99330.97;;;0.91;100.00
21760;BME280;11041;50.854;20.580;2024-02-16T04:30:16;99342.50;;;0.86;100.00
21760;BME280;11041;50.854;20.580;2024-02-16T04:32:43;99333.22;;;0.82;100.00
21760;BME280;11041;50.854;20.580;2024-02-16T04:35:13;99333.94;;;0.77;100.00
21760;BME280;11041;50.854;20.580;2024-02-16T04:37:44;99335.22;;;0.75;100.00
21760;BME280;11041;50.854;20.580;2024-02-16T04:40:12;99333.56;;;0.74;100.00
21760;BME280;11041;50.854;20.580;2024-02-16T04:42:40;99338.75;;;0.75;100.00
21760;BME280;11041;50.854;20.580;2024-02-16T04:45:13;99341.19;;;0.77;100.00
21760;BME280;11041;50.854;20.580;2024-02-16T04:47:39;99330.16;;;0.78;100.00
21760;BME280;11041;50.854;20.580;2024-02-16T04:50:07;99321.81;;;0.80;100.00
21760;BME280;11041;50.854;20.580;2024-02-16T04:52:39;99319.09;;;0.80;100.00
21760;BME280;11041;50.854;20.580;2024-02-16T04:55:07;99314.50;;;0.80;100.00
21760;BME280;11041;50.854;20.580;2024-02-16T04:57:35;99321.56;;;0.81;100.00
21760;BME280;11041;50.854;20.580;2024-02-16T05:00:03;99317.00;;;0.82;100.00
21760;BME280;11041;50.854;20.580;2024-02-16T05:02:33;99322.41;;;0.82;100.00
21760;BME280;11041;50.854;20.580;2024-02-16T05:05:04;99317.59;;;0.72;100.00
21760;BME280;11041;50.854;20.580;2024-02-16T05:07:33;99314.28;;;0.70;100.00
21760;BME280;11041;50.854;20.580;2024-02-16T05:10:02;99309.69;;;0.71;100.00
21760;BME280;11041;50.854;20.580;2024-02-16T05:12:29;99311.81;;;0.69;100.00
21760;BME280;11041;50.854;20.580;2024-02-16T05:15:01;99309.94;;;0.69;100.00
21760;BME280;11041;50.854;20.580;2024-02-16T05:17:31;99309.34;;;0.67;100.00
21760;BME280;11041;50.854;20.580;2024-02-16T05:20:02;99309.81;;;0.64;100.00
21760;BME280;11041;50.854;20.580;2024-02-16T05:22:29;99311.13;;;0.61;100.00
21760;BME280;11041;50.854;20.580;2024-02-16T05:24:55;99312.06;;;0.55;100.00
21760;BME280;11041;50.854;20.580;2024-02-16T05:27:22;99308.41;;;0.50;100.00
21760;BME280;11041;50.854;20.580;2024-02-16T05:29:50;99316.41;;;0.45;100.00
21760;BME280;11041;50.854;20.580;2024-02-16T05:32:19;99313.72;;;0.33;100.00
21760;BME280;11041;50.854;20.580;2024-02-16T05:34:45;99316.50;;;0.26;100.00
21760;BME280;11041;50.854;20.580;2024-02-16T05:37:12;99316.78;;;0.25;100.00
21760;BME280;11041;50.854;20.580;2024-02-16T05:39:41;99317.22;;;0.21;100.00
21760;BME280;11041;50.854;20.580;2024-02-16T05:42:24;99315.94;;;0.12;100.00
21760;BME280;11041;50.854;20.580;2024-02-16T05:44:50;99318.38;;;0.02;100.00
21760;BME280;11041;50.854;20.580;2024-02-16T05:47:21;99326.25;;;0.04;100.00
21760;BME280;11041;50.854;20.580;2024-02-16T05:49:51;99323.31;;;0.05;100.00
21760;BME280;11041;50.854;20.580;2024-02-16T05:52:20;99321.78;;;0.09;100.00
21760;BME280;11041;50.854;20.580;2024-02-16T05:54:52;99327.19;;;0.09;100.00
21760;BME280;11041;50.854;20.580;2024-02-16T05:57:21;99326.97;;;0.11;100.00
21760;BME280;11041;50.854;20.580;2024-02-16T05:59:50;99327.56;;;0.13;100.00
21760;BME280;11041;50.854;20.580;2024-02-16T06:02:20;99330.59;;;0.16;100.00
21760;BME280;11041;50.854;20.580;2024-02-16T06:04:50;99336.13;;;0.21;100.00
21760;BME280;11041;50.854;20.580;2024-02-16T06:07:17;99328.88;;;0.22;100.00
21760;BME280;11041;50.854;20.580;2024-02-16T06:09:45;99331.91;;;0.26;100.00
21760;BME280;11041;50.854;20.580;2024-02-16T06:12:13;99330.88;;;0.27;100.00
21760;BME280;11041;50.854;20.580;2024-02-16T06:14:42;99338.50;;;0.30;100.00
21760;BME280;11041;50.854;20.580;2024-02-16T06:17:09;99335.34;;;0.33;100.00
21760;BME280;11041;50.854;20.580;2024-02-16T06:19:38;99341.44;;;0.40;100.00
21760;BME280;11041;50.854;20.580;2024-02-16T06:22:06;99334.75;;;0.42;100.00
21760;BME280;11041;50.854;20.580;2024-02-16T06:24:36;99339.47;;;0.47;100.00
21760;BME280;11041;50.854;20.580;2024-02-16T06:27:03;99347.56;;;0.47;100.00
21760;BME280;11041;50.854;20.580;2024-02-16T06:29:30;99347.94;;;0.51;100.00
21760;BME280;11041;50.854;20.580;2024-02-16T06:31:57;99358.28;;;0.54;100.00
21760;BME280;11041;50.854;20.580;2024-02-16T06:34:23;99353.47;;;0.56;100.00
21760;BME280;11041;50.854;20.580;2024-02-16T06:36:51;99352.97;;;0.59;100.00
21760;BME280;11041;50.854;20.580;2024-02-16T06:39:17;99349.56;;;0.63;100.00
21760;BME280;11041;50.854;20.580;2024-02-16T06:41:46;99356.97;;;0.68;100.00
21760;BME280;11041;50.854;20.580;2024-02-16T06:44:15;99355.78;;;0.76;100.00
21760;BME280;11041;50.854;20.580;2024-02-16T06:46:43;99347.56;;;0.82;100.00
21760;BME280;11041;50.854;20.580;2024-02-16T06:49:14;99340.97;;;0.90;100.00
21760;BME280;11041;50.854;20.580;2024-02-16T06:51:44;99351.19;;;1.00;100.00
21760;BME280;11041;50.854;20.580;2024-02-16T06:54:12;99344.84;;;1.06;100.00
21760;BME280;11041;50.854;20.580;2024-02-16T06:56:41;99346.66;;;1.17;100.00
21760;BME280;11041;50.854;20.580;2024-02-16T06:59:10;99339.00;;;1.26;100.00
21760;BME280;11041;50.854;20.580;2024-02-16T07:01:38;99343.81;;;1.36;100.00
21760;BME280;11041;50.854;20.580;2024-02-16T07:04:04;99350.50;;;1.45;100.00
21760;BME280;11041;50.854;20.580;2024-02-16T07:06:32;99348.78;;;1.56;100.00
21760;BME280;11041;50.854;20.580;2024-02-16T07:08:59;99350.06;;;1.65;100.00
21760;BME280;11041;50.854;20.580;2024-02-16T07:11:26;99340.25;;;1.76;100.00
21760;BME280;11041;50.854;20.580;2024-02-16T07:13:53;99345.03;;;1.85;100.00
21760;BME280;11041;50.854;20.580;2024-02-16T07:16:19;99339.78;;;1.96;100.00
21760;BME280;11041;50.854;20.580;2024-02-16T07:18:49;99337.22;;;2.06;100.00
21760;BME280;11041;50.854;20.580;2024-02-16T07:21:19;99345.53;;;2.16;100.00
21760;BME280;11041;50.854;20.580;2024-02-16T07:23:48;99339.22;;;2.27;100.00
21760;BME280;11041;50.854;20.580;2024-02-16T07:26:15;99344.78;;;2.38;100.00
21760;BME280;11041;50.854;20.580;2024-02-16T07:28:44;99348.25;;;2.50;100.00
21760;BME280;11041;50.854;20.580;2024-02-16T07:31:12;99342.50;;;2.63;100.00
21760;BME280;11041;50.854;20.580;2024-02-16T07:33:42;99348.88;;;2.74;100.00
21760;BME280;11041;50.854;20.580;2024-02-16T07:36:11;99344.44;;;2.85;100.00
21760;BME280;11041;50.854;20.580;2024-02-16T07:38:38;99352.72;;;2.95;100.00
21760;BME280;11041;50.854;20.580;2024-02-16T07:41:05;99358.78;;;3.02;100.00
21760;BME280;11041;50.854;20.580;2024-02-16T07:43:31;99360.56;;;3.13;100.00
21760;BME280;11041;50.854;20.580;2024-02-16T07:46:01;99363.16;;;3.25;100.00
21760;BME280;11041;50.854;20.580;2024-02-16T07:48:29;99363.53;;;3.34;100.00
21760;BME280;11041;50.854;20.580;2024-02-16T07:51:00;99360.38;;;3.42;100.00
21760;BME280;11041;50.854;20.580;2024-02-16T07:53:31;99359.94;;;3.50;100.00
21760;BME280;11041;50.854;20.580;2024-02-16T07:55:58;99351.59;;;3.57;100.00
21760;BME280;11041;50.854;20.580;2024-02-16T07:58:27;99354.41;;;3.67;100.00
21760;BME280;11041;50.854;20.580;2024-02-16T08:00:53;99354.78;;;3.76;100.00
21760;BME280;11041;50.854;20.580;2024-02-16T08:03:24;99354.06;;;3.86;100.00
21760;BME280;11041;50.854;20.580;2024-02-16T08:05:52;99347.34;;;3.93;100.00
21760;BME280;11041;50.854;20.580;2024-02-16T08:08:18;99347.72;;;4.02;100.00
21760;BME280;11041;50.854;20.580;2024-02-16T08:10:46;99344.75;;;4.09;100.00
21760;BME280;11041;50.854;20.580;2024-02-16T08:13:13;99350.56;;;4.17;100.00
21760;BME280;11041;50.854;20.580;2024-02-16T08:15:40;99348.19;;;4.26;100.00
21760;BME280;11041;50.854;20.580;2024-02-16T08:18:06;99340.38;;;4.35;100.00
21760;BME280;11041;50.854;20.580;2024-02-16T08:20:33;99338.25;;;4.42;100.00
21760;BME280;11041;50.854;20.580;2024-02-16T08:23:00;99339.97;;;4.53;99.79
21760;BME280;11041;50.854;20.580;2024-02-16T08:25:28;99339.78;;;4.65;100.00
21760;BME280;11041;50.854;20.580;2024-02-16T08:27:57;99333.59;;;4.75;99.73
21760;BME280;11041;50.854;20.580;2024-02-16T08:30:25;99336.94;;;4.87;99.49
21760;BME280;11041;50.854;20.580;2024-02-16T08:32:52;99331.53;;;4.97;98.76
21760;BME280;11041;50.854;20.580;2024-02-16T08:35:20;99331.56;;;5.07;98.08
21760;BME280;11041;50.854;20.580;2024-02-16T08:37:49;99340.06;;;5.16;97.51
21760;BME280;11041;50.854;20.580;2024-02-16T08:40:18;99347.75;;;5.24;97.28
21760;BME280;11041;50.854;20.580;2024-02-16T08:42:45;99348.63;;;5.35;97.13
21760;BME280;11041;50.854;20.580;2024-02-16T08:45:12;99342.38;;;5.45;97.05
21760;BME280;11041;50.854;20.580;2024-02-16T08:47:41;99338.63;;;5.56;96.45
21760;BME280;11041;50.854;20.580;2024-02-16T08:50:09;99344.34;;;5.65;95.68
21760;BME280;11041;50.854;20.580;2024-02-16T08:52:37;99341.13;;;5.73;95.61
21760;BME280;11041;50.854;20.580;2024-02-16T08:55:05;99344.66;;;5.84;95.51
21760;BME280;11041;50.854;20.580;2024-02-16T08:57:35;99337.59;;;5.93;95.64
21760;BME280;11041;50.854;20.580;2024-02-16T09:00:03;99331.09;;;5.99;95.32
21760;BME280;11041;50.854;20.580;2024-02-16T09:02:29;99334.66;;;6.10;95.29
21760;BME280;11041;50.854;20.580;2024-02-16T09:04:57;99333.84;;;6.19;95.16
21760;BME280;11041;50.854;20.580;2024-02-16T09:07:25;99333.31;;;6.28;94.37
21760;BME280;11041;50.854;20.580;2024-02-16T09:09:56;99332.22;;;6.34;92.52
21760;BME280;11041;50.854;20.580;2024-02-16T09:12:23;99343.13;;;6.44;92.24
21760;BME280;11041;50.854;20.580;2024-02-16T09:14:50;99332.75;;;6.51;91.59
21760;BME280;11041;50.854;20.580;2024-02-16T09:17:17;99336.56;;;6.60;91.68
21760;BME280;11041;50.854;20.580;2024-02-16T09:19:47;99334.09;;;6.69;91.57
21760;BME280;11041;50.854;20.580;2024-02-16T09:22:14;99349.38;;;6.75;90.10
21760;BME280;11041;50.854;20.580;2024-02-16T09:24:41;99340.34;;;6.85;90.46
21760;BME280;11041;50.854;20.580;2024-02-16T09:27:15;99337.34;;;6.92;90.60
21760;BME280;11041;50.854;20.580;2024-02-16T09:29:41;99343.31;;;6.99;90.32
21760;BME280;11041;50.854;20.580;2024-02-16T09:32:08;99335.38;;;7.08;90.52
21760;BME280;11041;50.854;20.580;2024-02-16T09:34:35;99338.66;;;7.15;89.15
21760;BME280;11041;50.854;20.580;2024-02-16T09:37:02;99333.94;;;7.25;89.77
21760;BME280;11041;50.854;20.580;2024-02-16T09:39:30;99326.00;;;7.34;90.01
21760;BME280;11041;50.854;20.580;2024-02-16T09:41:59;99326.53;;;7.41;89.38
21760;BME280;11041;50.854;20.580;2024-02-16T09:44:28;99330.59;;;7.49;88.61
21760;BME280;11041;50.854;20.580;2024-02-16T09:46:57;99333.28;;;7.54;88.26
21760;BME280;11041;50.854;20.580;2024-02-16T09:49:31;99334.59;;;7.62;88.71
21760;BME280;11041;50.854;20.580;2024-02-16T09:52:02;99330.19;;;7.71;89.17
21760;BME280;11041;50.854;20.580;2024-02-16T09:54:32;99331.25;;;7.80;88.93
21760;BME280;11041;50.854;20.580;2024-02-16T09:57:06;99328.47;;;7.85;86.83
21760;BME280;11041;50.854;20.580;2024-02-16T09:59:36;99322.13;;;7.95;87.41
21760;BME280;11041;50.854;20.580;2024-02-16T10:02:04;99329.19;;;8.01;87.32
21760;BME280;11041;50.854;20.580;2024-02-16T10:04:35;99330.22;;;8.10;87.34
21760;BME280;11041;50.854;20.580;2024-02-16T10:07:01;99329.63;;;8.19;86.65
21760;BME280;11041;50.854;20.580;2024-02-16T10:09:28;99328.72;;;8.28;86.45
21760;BME280;11041;50.854;20.580;2024-02-16T10:11:55;99333.88;;;8.35;86.05
21760;BME280;11041;50.854;20.580;2024-02-16T10:14:23;99328.63;;;8.39;85.74
21760;BME280;11041;50.854;20.580;2024-02-16T10:17:05;99328.34;;;8.45;85.43
21760;BME280;11041;50.854;20.580;2024-02-16T10:19:33;99337.31;;;8.51;85.85
21760;BME280;11041;50.854;20.580;2024-02-16T10:22:12;99326.03;;;8.58;85.57
21760;BME280;11041;50.854;20.580;2024-02-16T10:24:40;99330.66;;;8.62;85.01
21760;BME280;11041;50.854;20.580;2024-02-16T10:27:16;99332.25;;;8.68;85.55
21760;BME280;11041;50.854;20.580;2024-02-16T10:29:49;99314.38;;;8.76;85.21
21760;BME280;11041;50.854;20.580;2024-02-16T10:32:22;99314.03;;;8.83;84.72
21760;BME280;11041;50.854;20.580;2024-02-16T10:34:51;99321.88;;;8.89;84.23
21760;BME280;11041;50.854;20.580;2024-02-16T10:37:22;99311.41;;;8.96;84.18
21760;BME280;11041;50.854;20.580;2024-02-16T10:39:51;99308.31;;;9.03;83.94
21760;BME280;11041;50.854;20.580;2024-02-16T10:42:20;99306.84;;;9.11;83.93
21760;BME280;11041;50.854;20.580;2024-02-16T10:44:48;99310.88;;;9.18;83.69
21760;BME280;11041;50.854;20.580;2024-02-16T10:47:18;99304.22;;;9.25;83.43
21760;BME280;11041;50.854;20.580;2024-02-16T10:49:45;99310.69;;;9.34;83.46
21760;BME280;11041;50.854;20.580;2024-02-16T10:52:13;99306.19;;;9.43;83.51
21760;BME280;11041;50.854;20.580;2024-02-16T10:54:43;99299.25;;;9.51;82.41
21760;BME280;11041;50.854;20.580;2024-02-16T10:57:09;99298.56;;;9.59;81.94
21760;BME280;11041;50.854;20.580;2024-02-16T10:59:43;99302.56;;;9.67;81.55
21760;BME280;11041;50.854;20.580;2024-02-16T11:02:12;99292.28;;;9.77;80.75
21760;BME280;11041;50.854;20.580;2024-02-16T11:04:45;99293.97;;;9.92;80.25
21760;BME280;11041;50.854;20.580;2024-02-16T11:07:16;99287.22;;;10.03;80.00
21760;BME280;11041;50.854;20.580;2024-02-16T11:09:46;99290.41;;;10.11;79.35
21760;BME280;11041;50.854;20.580;2024-02-16T11:12:15;99280.16;;;10.16;78.58
21760;BME280;11041;50.854;20.580;2024-02-16T11:14:46;99272.06;;;10.25;78.75
21760;BME280;11041;50.854;20.580;2024-02-16T11:17:19;99266.41;;;10.35;78.59
21760;BME280;11041;50.854;20.580;2024-02-16T11:19:48;99274.19;;;10.47;78.22
21760;BME280;11041;50.854;20.580;2024-02-16T11:22:22;99274.28;;;10.56;77.48
21760;BME280;11041;50.854;20.580;2024-02-16T11:24:53;99270.84;;;10.64;77.08
21760;BME280;11041;50.854;20.580;2024-02-16T11:27:20;99268.25;;;10.73;77.13
21760;BME280;11041;50.854;20.580;2024-02-16T11:29:48;99265.59;;;10.81;76.78
21760;BME280;11041;50.854;20.580;2024-02-16T11:32:14;99266.28;;;10.87;76.65
21760;BME280;11041;50.854;20.580;2024-02-16T11:34:42;99262.44;;;10.88;76.03
21760;BME280;11041;50.854;20.580;2024-02-16T11:37:08;99259.41;;;10.90;76.09
21760;BME280;11041;50.854;20.580;2024-02-16T11:39:35;99255.72;;;10.80;73.91
21760;BME280;11041;50.854;20.580;2024-02-16T11:42:12;99254.47;;;10.86;75.26
21760;BME280;11041;50.854;20.580;2024-02-16T11:44:53;99252.47;;;10.92;75.70
21760;BME280;11041;50.854;20.580;2024-02-16T11:47:25;99247.16;;;10.96;75.66
21760;BME280;11041;50.854;20.580;2024-02-16T11:50:09;99247.66;;;10.98;75.25
21760;BME280;11041;50.854;20.580;2024-02-16T11:52:39;99244.63;;;10.99;75.22
21760;BME280;11041;50.854;20.580;2024-02-16T11:55:13;99242.69;;;11.00;74.17
21760;BME280;11041;50.854;20.580;2024-02-16T11:57:41;99238.69;;;11.06;75.09
21760;BME280;11041;50.854;20.580;2024-02-16T12:00:09;99237.06;;;11.05;73.80
21760;BME280;11041;50.854;20.580;2024-02-16T12:02:41;99233.69;;;11.08;74.17
21760;BME280;11041;50.854;20.580;2024-02-16T12:05:08;99234.44;;;11.14;74.46
21760;BME280;11041;50.854;20.580;2024-02-16T12:07:39;99234.63;;;11.17;72.98
21760;BME280;11041;50.854;20.580;2024-02-16T12:10:10;99229.34;;;11.21;72.82
21760;BME280;11041;50.854;20.580;2024-02-16T12:12:37;99224.53;;;11.26;73.56
21760;BME280;11041;50.854;20.580;2024-02-16T12:15:05;99231.53;;;11.33;73.64
21760;BME280;11041;50.854;20.580;2024-02-16T12:17:35;99225.63;;;11.39;73.63
21760;BME280;11041;50.854;20.580;2024-02-16T12:20:10;99220.31;;;11.43;73.10
21760;BME280;11041;50.854;20.580;2024-02-16T12:22:37;99210.00;;;11.48;73.12
21760;BME280;11041;50.854;20.580;2024-02-16T12:25:07;99216.19;;;11.54;72.60
21760;BME280;11041;50.854;20.580;2024-02-16T12:27:38;99217.84;;;11.55;72.16
21760;BME280;11041;50.854;20.580;2024-02-16T12:30:05;99212.34;;;11.55;72.18
21760;BME280;11041;50.854;20.580;2024-02-16T12:32:31;99209.59;;;11.55;72.37
21760;BME280;11041;50.854;20.580;2024-02-16T12:35:00;99207.75;;;11.50;71.79
21760;BME280;11041;50.854;20.580;2024-02-16T12:37:28;99207.06;;;11.45;71.86
21760;BME280;11041;50.854;20.580;2024-02-16T12:39:57;99204.91;;;11.42;72.24
21760;BME280;11041;50.854;20.580;2024-02-16T12:42:27;99204.41;;;11.40;72.45
21760;BME280;11041;50.854;20.580;2024-02-16T12:44:55;99203.09;;;11.37;72.73
21760;BME280;11041;50.854;20.580;2024-02-16T12:47:22;99196.16;;;11.40;72.58
21760;BME280;11041;50.854;20.580;2024-02-16T12:49:49;99199.84;;;11.35;72.43
21760;BME280;11041;50.854;20.580;2024-02-16T12:52:20;99206.16;;;11.36;72.60
21760;BME280;11041;50.854;20.580;2024-02-16T12:54:53;99193.53;;;11.35;72.83
21760;BME280;11041;50.854;20.580;2024-02-16T12:57:19;99195.97;;;11.36;73.22
21760;BME280;11041;50.854;20.580;2024-02-16T12:59:50;99196.78;;;11.37;72.79